Terminal Aerodrome Forecast
Issued by NWS

Home | Current Version | Previous Version | Text Only | Print | Product List | Glossary On
Versions: 1 2 3 4 5 6 7 8 9 10 11 12 13 14 15 16 17 18 19 20 21 22 23
000
FTUS43 KLSX 171500 AAA
TAFCPS
TAF AMD
KCPS 171514Z 1715/1812 16006KT P6SM SCT020 OVC040
      TEMPO 1716/1718 -RA OVC020
     FM171900 16006KT P6SM SCT020 OVC035
     FM180300 VRB03KT P6SM BKN050
     FM180900 00000KT 3SM BR SCT040=

USA.gov is the U.S. government's official web portal to all federal, state and local government web resources and services.